createdAt,value
2018-11-23T00:00:15.828Z,28.23
2018-11-23T00:02:45.071Z,27.67
2018-11-23T00:05:13.320Z,27.67
2018-11-23T00:07:43.232Z,29.67
2018-11-23T00:10:13.085Z,28.00
2018-11-23T00:12:41.267Z,28.90
2018-11-23T00:15:13.554Z,28.03
2018-11-23T00:17:41.823Z,27.13
2018-11-23T00:20:12.377Z,28.13
2018-11-23T00:22:40.756Z,28.47
2018-11-23T00:27:45.028Z,28.90
2018-11-23T00:30:15.337Z,27.90
2018-11-23T00:32:43.827Z,28.60
2018-11-23T00:35:14.718Z,27.07
2018-11-23T00:37:43.065Z,31.77
2018-11-23T00:40:13.364Z,28.03
2018-11-23T00:42:42.054Z,29.50
2018-11-23T00:45:12.015Z,28.70
2018-11-23T00:47:40.681Z,28.70
2018-11-23T00:50:11.106Z,30.27
2018-11-23T00:52:39.816Z,30.17
2018-11-23T00:55:10.409Z,29.00
2018-11-23T00:57:39.166Z,27.63
2018-11-23T01:00:14.377Z,31.73
2018-11-23T01:02:42.740Z,28.00
2018-11-23T01:05:12.273Z,29.80
2018-11-23T01:07:41.094Z,28.00
2018-11-23T01:10:10.887Z,31.17
2018-11-23T01:12:39.869Z,31.77
2018-11-23T01:15:08.744Z,28.70
2018-11-23T01:17:37.335Z,30.47
2018-11-23T01:20:08.843Z,29.87
2018-11-23T01:22:37.258Z,31.17
2018-11-23T01:25:07.429Z,28.37
2018-11-23T01:27:35.586Z,32.63
2018-11-23T01:30:04.056Z,27.90
2018-11-23T01:32:32.377Z,29.60
2018-11-23T01:35:00.852Z,28.97
2018-11-23T01:37:29.030Z,30.73
2018-11-23T01:39:57.207Z,29.73
2018-11-23T01:42:25.375Z,31.43
2018-11-23T01:44:53.811Z,30.43
2018-11-23T01:47:22.682Z,28.27
2018-11-23T01:49:51.102Z,30.17
2018-11-23T01:52:19.376Z,30.27
2018-11-23T01:54:47.616Z,29.77
2018-11-23T01:57:16.897Z,29.23
2018-11-23T01:59:45.082Z,29.47
2018-11-23T02:02:13.351Z,33.20
2018-11-23T02:04:41.672Z,36.63
2018-11-23T02:07:09.831Z,27.73
2018-11-23T02:09:38.018Z,29.43
2018-11-23T02:12:06.174Z,29.77
2018-11-23T02:14:34.454Z,31.87
2018-11-23T02:17:02.616Z,30.47
2018-11-23T02:19:30.783Z,30.83
2018-11-23T02:21:59.772Z,29.70
2018-11-23T02:24:27.926Z,28.03
2018-11-23T02:26:56.132Z,29.67
2018-11-23T02:29:24.474Z,28.93
2018-11-23T02:31:52.637Z,28.43
2018-11-23T02:34:20.853Z,30.17
2018-11-23T02:36:49.325Z,29.97
2018-11-23T02:39:17.652Z,28.43
2018-11-23T02:41:45.822Z,30.43
2018-11-23T02:44:14.799Z,31.13
2018-11-23T02:46:42.989Z,29.83
2018-11-23T02:49:11.187Z,30.13
2018-11-23T02:51:39.557Z,29.63
2018-11-23T02:54:07.780Z,28.73
2018-11-23T02:56:44.618Z,32.63
2018-11-23T02:59:12.971Z,29.93
2018-11-23T03:01:41.473Z,31.77
2018-11-23T03:04:10.962Z,31.87
2018-11-23T03:06:39.116Z,29.57
2018-11-23T03:09:09.472Z,28.70
2018-11-23T03:11:40.430Z,32.77
2018-11-23T03:14:09.602Z,30.33
2018-11-23T03:16:38.147Z,28.70
2018-11-23T03:19:06.637Z,29.70
2018-11-23T03:21:35.726Z,31.07
2018-11-23T03:24:04.158Z,30.13
2018-11-23T03:26:32.331Z,29.03
2018-11-23T03:29:00.523Z,33.27
2018-11-23T03:31:28.687Z,29.33
2018-11-23T03:33:57.865Z,28.17
2018-11-23T03:36:26.038Z,28.00
2018-11-23T03:38:55.181Z,29.03
2018-11-23T03:41:23.365Z,30.17
2018-11-23T03:43:51.558Z,32.33
2018-11-23T03:46:19.832Z,30.63
2018-11-23T03:48:48.028Z,31.53
2018-11-23T03:51:16.225Z,28.80
2018-11-23T03:53:44.593Z,31.63
2018-11-23T03:56:12.775Z,28.50
2018-11-23T03:58:40.938Z,32.83
2018-11-23T04:01:09.103Z,28.53
2018-11-23T04:03:37.257Z,29.40
2018-11-23T04:06:05.674Z,27.27
2018-11-23T04:08:33.968Z,27.70
2018-11-23T04:11:02.177Z,28.73
2018-11-23T04:13:31.115Z,29.00
2018-11-23T04:15:59.469Z,31.07
2018-11-23T04:18:28.208Z,29.13
2018-11-23T04:21:01.512Z,30.80
2018-11-23T04:23:30.760Z,28.80
2018-11-23T04:25:59.284Z,33.07
2018-11-23T04:28:27.518Z,28.73
2018-11-23T04:30:55.866Z,28.43
2018-11-23T04:33:24.347Z,30.70
2018-11-23T04:35:52.501Z,27.60
2018-11-23T04:38:21.042Z,29.23
2018-11-23T04:40:49.224Z,32.30
2018-11-23T04:43:17.413Z,36.97
2018-11-23T04:45:45.607Z,30.20
2018-11-23T04:48:13.815Z,28.93
2018-11-23T04:50:42.080Z,28.03
2018-11-23T04:53:10.248Z,28.37
2018-11-23T04:55:38.458Z,29.50
2018-11-23T04:58:06.652Z,28.27
2018-11-23T05:00:35.118Z,27.03
2018-11-23T05:03:03.296Z,27.00
2018-11-23T05:05:32.600Z,26.50
2018-11-23T05:08:00.766Z,27.83
2018-11-23T05:10:28.929Z,27.23
2018-11-23T05:12:57.572Z,27.30
2018-11-23T05:15:27.068Z,26.70
2018-11-23T05:17:55.255Z,27.40
2018-11-23T05:20:23.783Z,25.60
2018-11-23T05:22:52.070Z,25.87
2018-11-23T05:25:20.802Z,25.97
2018-11-23T05:30:45.808Z,29.13
2018-11-23T05:33:15.248Z,27.37
2018-11-23T05:35:43.891Z,26.87
2018-11-23T05:38:12.058Z,25.00
2018-11-23T05:40:40.466Z,26.57
2018-11-23T05:43:08.618Z,28.77
2018-11-23T05:45:36.805Z,25.97
2018-11-23T05:48:05.105Z,28.80
2018-11-23T05:50:33.325Z,27.03
2018-11-23T05:53:01.723Z,26.77
2018-11-23T05:55:30.091Z,26.47
2018-11-23T05:57:58.252Z,25.37
2018-11-23T06:00:28.791Z,25.13
2018-11-23T06:02:56.982Z,26.63
2018-11-23T06:05:25.174Z,23.63
2018-11-23T06:07:53.344Z,24.93
2018-11-23T06:10:22.027Z,28.83
2018-11-23T06:12:50.295Z,26.20
2018-11-23T06:15:19.812Z,25.60
2018-11-23T06:17:48.318Z,26.33
2018-11-23T06:20:18.404Z,26.53
2018-11-23T06:22:47.556Z,25.10
2018-11-23T06:25:25.263Z,25.50
2018-11-23T06:27:53.502Z,26.03
2018-11-23T06:30:21.698Z,24.73
2018-11-23T06:33:01.325Z,26.07
2018-11-23T06:35:29.733Z,27.20
2018-11-23T06:37:58.294Z,27.10
2018-11-23T06:40:27.766Z,27.00
2018-11-23T06:45:54.550Z,26.03
2018-11-23T06:48:23.100Z,26.23
2018-11-23T06:50:51.493Z,24.90
2018-11-23T06:53:19.841Z,26.20
2018-11-23T06:55:48.665Z,26.77
2018-11-23T06:58:18.042Z,26.47
2018-11-23T07:00:46.230Z,26.03
2018-11-23T07:03:14.405Z,25.53
2018-11-23T07:05:42.964Z,26.93
2018-11-23T07:08:19.729Z,26.37
2018-11-23T07:10:48.067Z,30.13
2018-11-23T07:13:17.064Z,25.80
2018-11-23T07:15:45.740Z,26.13
2018-11-23T07:18:14.013Z,30.93
2018-11-23T07:20:42.460Z,30.13
2018-11-23T07:23:10.671Z,27.90
2018-11-23T07:25:42.535Z,29.17
2018-11-23T07:28:35.629Z,26.40
2018-11-23T07:31:11.210Z,26.20
2018-11-23T07:34:09.801Z,24.60
2018-11-23T07:36:45.477Z,29.47
2018-11-23T07:39:24.937Z,24.90
2018-11-23T07:42:06.250Z,25.10
2018-11-23T07:46:42.665Z,25.10
2018-11-23T07:49:11.079Z,23.90
2018-11-23T07:51:39.434Z,24.57
2018-11-23T07:54:07.609Z,26.00
2018-11-23T07:56:36.134Z,25.00
2018-11-23T07:59:04.332Z,24.77
2018-11-23T08:01:32.496Z,26.43
2018-11-23T08:04:00.673Z,25.27
2018-11-23T08:06:28.820Z,24.63
2018-11-23T08:08:57.127Z,23.80
2018-11-23T08:11:25.331Z,22.57
2018-11-23T08:13:53.600Z,22.53
2018-11-23T08:16:21.801Z,23.77
2018-11-23T08:18:50.669Z,24.07
2018-11-23T08:21:18.829Z,24.80
2018-11-23T08:23:47.150Z,23.87
2018-11-23T08:26:15.453Z,25.87
2018-11-23T08:28:43.657Z,23.53
2018-11-23T08:31:11.856Z,23.27
2018-11-23T08:33:40.123Z,25.10
2018-11-23T08:36:08.367Z,22.90
2018-11-23T08:38:36.548Z,25.93
2018-11-23T08:41:05.536Z,23.07
2018-11-23T08:43:32.900Z,24.77
2018-11-23T08:46:01.273Z,23.20
2018-11-23T08:48:30.262Z,23.67
2018-11-23T08:50:58.458Z,23.67
2018-11-23T08:53:33.697Z,25.50
2018-11-23T08:56:01.863Z,23.93
2018-11-23T08:58:30.301Z,24.53
2018-11-23T09:00:58.551Z,24.23
2018-11-23T09:03:27.439Z,22.80
2018-11-23T09:05:55.715Z,23.20
2018-11-23T09:08:24.002Z,24.83
2018-11-23T09:10:52.188Z,23.77
2018-11-23T09:13:20.418Z,24.97
2018-11-23T09:15:48.726Z,25.07
2018-11-23T09:18:16.906Z,22.27
2018-11-23T09:20:45.076Z,25.40
2018-11-23T09:23:13.300Z,25.70
2018-11-23T09:25:41.464Z,23.93
2018-11-23T09:28:10.017Z,26.20
2018-11-23T09:30:38.244Z,23.93
2018-11-23T09:33:06.906Z,23.37
2018-11-23T09:35:35.172Z,25.43
2018-11-23T09:38:04.493Z,24.30
2018-11-23T09:40:32.664Z,22.67
2018-11-23T09:43:00.885Z,22.33
2018-11-23T09:45:31.601Z,23.67
2018-11-23T09:48:01.224Z,22.03
2018-11-23T09:50:30.455Z,24.97
2018-11-23T09:52:59.854Z,23.53
2018-11-23T09:55:29.092Z,22.77
2018-11-23T09:57:57.277Z,23.47
2018-11-23T10:00:26.877Z,22.93
2018-11-23T10:02:56.608Z,21.47
2018-11-23T10:05:25.474Z,23.13
2018-11-23T10:07:55.242Z,20.67
2018-11-23T10:10:24.088Z,22.83
2018-11-23T10:12:52.279Z,26.93
2018-11-23T10:15:21.159Z,22.63
2018-11-23T10:17:49.318Z,22.17
2018-11-23T10:20:18.809Z,22.50
2018-11-23T10:22:47.296Z,24.23
2018-11-23T10:25:17.128Z,21.83
2018-11-23T10:27:45.595Z,24.10
2018-11-23T10:30:16.160Z,22.53
2018-11-23T10:32:45.260Z,24.80
2018-11-23T10:35:13.439Z,22.67
2018-11-23T10:37:42.365Z,22.30
2018-11-23T10:40:12.993Z,23.60
2018-11-23T10:42:41.507Z,22.20
2018-11-23T10:45:20.277Z,21.67
2018-11-23T10:47:48.991Z,24.53
2018-11-23T10:50:19.778Z,22.63
2018-11-23T10:52:48.099Z,22.80
2018-11-23T10:55:18.451Z,23.57
2018-11-23T10:57:46.676Z,20.83
2018-11-23T11:00:23.586Z,21.40
2018-11-23T11:02:58.218Z,19.30
2018-11-23T11:06:04.475Z,22.83
2018-11-23T11:08:32.667Z,21.90
2018-11-23T11:11:00.863Z,23.63
2018-11-23T11:13:29.034Z,20.03
2018-11-23T11:15:57.595Z,21.70
2018-11-23T11:18:25.784Z,20.73
2018-11-23T11:20:53.946Z,25.80
2018-11-23T11:23:22.222Z,23.83
2018-11-23T11:25:50.539Z,24.77
2018-11-23T11:28:18.720Z,20.60
2018-11-23T11:30:46.904Z,22.07
2018-11-23T11:33:15.200Z,21.00
2018-11-23T11:35:43.417Z,20.80
2018-11-23T11:38:11.619Z,21.97
2018-11-23T11:40:39.942Z,20.27
2018-11-23T11:43:08.160Z,21.93
2018-11-23T11:45:36.333Z,21.37
2018-11-23T11:48:04.604Z,21.27
2018-11-23T11:50:32.815Z,22.47
2018-11-23T11:53:01.020Z,21.40
2018-11-23T11:55:29.201Z,20.73
2018-11-23T11:57:57.391Z,23.73
2018-11-23T12:00:26.466Z,21.67
2018-11-23T12:02:55.050Z,21.23
2018-11-23T12:05:23.284Z,21.17
2018-11-23T12:07:51.507Z,20.87
2018-11-23T12:10:22.596Z,20.57
2018-11-23T12:12:51.126Z,21.70
2018-11-23T12:15:19.318Z,20.50
2018-11-23T12:17:47.496Z,22.67
2018-11-23T12:20:19.102Z,21.83
2018-11-23T12:22:47.767Z,26.53
2018-11-23T12:25:16.054Z,26.77
2018-11-23T12:27:44.221Z,23.23
2018-11-23T12:30:15.458Z,22.20
2018-11-23T12:32:44.739Z,22.10
2018-11-23T12:35:13.890Z,24.97
2018-11-23T12:37:42.207Z,23.77
2018-11-23T12:40:12.096Z,25.40
2018-11-23T12:42:40.440Z,22.10
2018-11-23T12:45:10.822Z,21.83
2018-11-23T12:47:39.161Z,21.10
2018-11-23T12:50:09.655Z,20.83
2018-11-23T12:52:37.853Z,20.90
2018-11-23T12:55:18.280Z,24.40
2018-11-23T12:57:47.767Z,23.33
2018-11-23T13:00:24.048Z,23.83
2018-11-23T13:02:54.349Z,24.60
2018-11-23T13:05:23.676Z,21.53
2018-11-23T13:07:52.785Z,20.67
2018-11-23T13:10:23.698Z,23.63
2018-11-23T13:12:52.603Z,22.43
2018-11-23T13:16:24.241Z,22.97
2018-11-23T13:18:53.427Z,20.53
2018-11-23T13:21:22.581Z,20.27
2018-11-23T13:23:51.135Z,21.97
2018-11-23T13:26:19.543Z,24.20
2018-11-23T13:28:54.843Z,22.03
2018-11-23T13:31:23.932Z,22.07
2018-11-23T13:33:53.907Z,20.90
2018-11-23T13:36:22.235Z,23.50
2018-11-23T13:38:50.442Z,22.00
2018-11-23T13:41:19.671Z,20.97
2018-11-23T13:43:47.965Z,21.33
2018-11-23T13:46:17.395Z,23.53
2018-11-23T13:48:45.664Z,22.53
2018-11-23T13:51:15.255Z,24.67
2018-11-23T13:53:43.736Z,24.50
2018-11-23T13:56:12.105Z,22.07
2018-11-23T13:58:40.713Z,22.47
2018-11-23T14:01:08.965Z,22.70
2018-11-23T14:03:37.459Z,22.93
2018-11-23T14:06:06.345Z,22.90
2018-11-23T14:08:34.948Z,23.50
2018-11-23T14:11:14.179Z,23.63
2018-11-23T14:13:43.078Z,23.57
2018-11-23T14:16:11.263Z,22.13
2018-11-23T14:18:39.543Z,23.60
2018-11-23T14:21:07.808Z,21.73
2018-11-23T14:23:36.000Z,21.67
2018-11-23T14:26:05.140Z,21.73
2018-11-23T14:28:34.382Z,23.93
2018-11-23T14:31:02.596Z,21.67
2018-11-23T14:33:30.998Z,24.10
2018-11-23T14:35:59.386Z,24.30
2018-11-23T14:38:27.630Z,22.93
2018-11-23T14:40:56.068Z,22.90
2018-11-23T14:43:24.354Z,22.57
2018-11-23T14:45:52.772Z,23.73
2018-11-23T14:48:22.142Z,22.03
2018-11-23T14:50:51.904Z,22.77
2018-11-23T14:53:39.434Z,22.57
2018-11-23T14:56:16.400Z,24.57
2018-11-23T14:58:44.769Z,23.63
2018-11-23T15:01:13.102Z,23.90
2018-11-23T15:03:45.210Z,26.27
2018-11-23T15:06:14.165Z,23.90
2018-11-23T15:08:42.664Z,25.40
2018-11-23T15:11:10.858Z,24.47
2018-11-23T15:13:39.067Z,25.20
2018-11-23T15:16:07.474Z,25.00
2018-11-23T15:18:35.868Z,27.47
2018-11-23T15:21:04.112Z,24.57
2018-11-23T15:23:32.332Z,24.10
2018-11-23T15:26:00.525Z,24.40
2018-11-23T15:28:28.763Z,25.83
2018-11-23T15:30:56.953Z,26.13
2018-11-23T15:33:25.236Z,25.57
2018-11-23T15:35:53.406Z,26.20
2018-11-23T15:38:23.215Z,24.67
2018-11-23T15:40:51.366Z,24.10
2018-11-23T15:43:20.414Z,24.73
2018-11-23T15:47:13.194Z,23.00
2018-11-23T15:49:41.985Z,25.47
2018-11-23T15:52:10.212Z,24.47
2018-11-23T15:54:40.559Z,28.97
2018-11-23T15:57:09.517Z,26.77
2018-11-23T15:59:38.829Z,26.27
2018-11-23T16:02:25.981Z,25.70
2018-11-23T16:04:54.880Z,24.30
2018-11-23T16:07:23.224Z,24.87
2018-11-23T16:09:51.399Z,26.43
2018-11-23T16:12:19.587Z,25.13
2018-11-23T16:14:47.777Z,25.13
2018-11-23T16:17:16.154Z,24.80
2018-11-23T16:19:44.501Z,25.30
2018-11-23T16:22:12.873Z,25.83
2018-11-23T16:24:44.791Z,28.40
2018-11-23T16:27:13.185Z,28.33
2018-11-23T16:29:41.433Z,25.60
2018-11-23T16:32:09.795Z,27.23
2018-11-23T16:34:38.288Z,28.30
2018-11-23T16:37:07.606Z,26.23
2018-11-23T16:39:36.014Z,26.80
2018-11-23T16:42:04.768Z,25.73
2018-11-23T16:44:33.303Z,28.50
2018-11-23T16:47:01.623Z,26.63
2018-11-23T16:49:30.020Z,27.60
2018-11-23T16:51:58.296Z,29.53
2018-11-23T16:54:26.514Z,30.23
2018-11-23T16:56:55.015Z,27.30
2018-11-23T16:59:26.409Z,27.27
2018-11-23T17:01:54.767Z,29.20
2018-11-23T17:04:38.094Z,29.03
2018-11-23T17:07:12.651Z,29.07
2018-11-23T17:09:45.035Z,27.93
2018-11-23T17:12:13.613Z,26.93
2018-11-23T17:14:42.884Z,28.10
2018-11-23T17:17:11.897Z,26.33
2018-11-23T17:19:40.515Z,29.10
2018-11-23T17:22:08.876Z,29.10
2018-11-23T17:24:38.696Z,31.83
2018-11-23T17:27:08.267Z,30.93
2018-11-23T17:29:36.734Z,28.47
2018-11-23T17:32:05.187Z,32.73
2018-11-23T17:34:36.409Z,30.20
2018-11-23T17:37:07.568Z,30.03
2018-11-23T17:39:36.248Z,33.27
2018-11-23T17:42:04.854Z,30.53
2018-11-23T17:44:34.604Z,29.27
2018-11-23T17:47:02.984Z,32.10
2018-11-23T17:49:31.640Z,29.23
2018-11-23T17:52:00.449Z,32.97
2018-11-23T17:54:29.116Z,29.60
2018-11-23T17:56:57.460Z,30.40
2018-11-23T17:59:25.709Z,28.87
2018-11-23T18:04:52.083Z,29.37
2018-11-23T18:07:20.389Z,27.97
2018-11-23T18:09:51.150Z,27.93
2018-11-23T18:12:23.618Z,28.03
2018-11-23T18:14:52.227Z,27.97
2018-11-23T18:17:20.753Z,29.77
2018-11-23T18:19:49.094Z,30.73
2018-11-23T18:22:17.497Z,30.33
2018-11-23T18:24:45.881Z,31.80
2018-11-23T18:27:21.274Z,28.43
2018-11-23T18:29:52.057Z,30.13
2018-11-23T18:56:32.898Z,26.67
2018-11-23T18:59:01.222Z,25.30
2018-11-23T19:01:30.109Z,26.03
2018-11-23T19:03:58.594Z,27.73
2018-11-23T19:06:27.257Z,26.77
2018-11-23T19:08:56.605Z,27.23
2018-11-23T19:11:25.145Z,27.33
2018-11-23T19:13:53.735Z,27.80
2018-11-23T19:16:24.812Z,25.37
2018-11-23T19:18:56.578Z,26.50
2018-11-23T19:21:25.213Z,25.20
2018-11-23T19:23:53.958Z,24.67
2018-11-23T19:26:24.274Z,25.87
2018-11-23T19:29:26.116Z,27.93
2018-11-23T19:31:58.572Z,26.33
2018-11-23T19:34:29.005Z,26.07
2018-11-23T19:36:57.401Z,26.00
2018-11-23T19:45:43.568Z,24.33
2018-11-23T19:48:36.441Z,23.97
2018-11-23T19:51:18.384Z,22.93
2018-11-23T19:53:46.800Z,24.03
2018-11-23T19:56:15.029Z,24.40
2018-11-23T19:58:43.250Z,23.90
2018-11-23T20:01:12.720Z,24.50
2018-11-23T20:03:40.926Z,23.40
2018-11-23T20:06:09.149Z,22.47
2018-11-23T20:08:37.414Z,22.97
2018-11-23T20:11:05.627Z,22.63
2018-11-23T20:13:33.967Z,23.70
2018-11-23T20:16:02.256Z,26.60
2018-11-23T20:18:30.465Z,23.43
2018-11-23T20:20:58.657Z,25.17
2018-11-23T20:23:26.856Z,25.40
2018-11-23T20:25:55.096Z,24.73
2018-11-23T20:28:23.486Z,26.20
2018-11-23T20:30:58.427Z,24.33
2018-11-23T20:33:26.805Z,23.33
2018-11-23T20:35:55.222Z,24.13
2018-11-23T20:38:23.465Z,23.60
2018-11-23T20:40:51.759Z,25.93
2018-11-23T20:43:22.091Z,24.00
2018-11-23T20:45:50.447Z,24.83
2018-11-23T20:48:18.830Z,24.13
2018-11-23T20:50:47.352Z,24.07
2018-11-23T20:53:15.851Z,22.83
2018-11-23T20:55:44.192Z,22.97
2018-11-23T20:58:12.402Z,23.97
2018-11-23T21:00:40.628Z,23.33
2018-11-23T21:03:08.947Z,22.40
2018-11-23T21:05:37.239Z,22.00
2018-11-23T21:08:05.541Z,22.73
2018-11-23T21:10:41.696Z,23.57
2018-11-23T21:14:18.860Z,25.07
2018-11-23T21:16:47.431Z,25.40
2018-11-23T21:19:15.688Z,24.03
2018-11-23T21:21:43.884Z,23.67
2018-11-23T21:24:12.215Z,24.03
2018-11-23T21:26:40.639Z,24.30
2018-11-23T21:29:09.631Z,24.43
2018-11-23T21:31:37.979Z,24.53
2018-11-23T21:36:47.220Z,24.50
2018-11-23T21:39:20.183Z,23.57
2018-11-23T21:41:49.430Z,26.17
2018-11-23T21:44:18.220Z,24.40
2018-11-23T21:46:47.281Z,23.87
2018-11-23T21:49:15.806Z,23.33
2018-11-23T21:51:44.603Z,23.50
2018-11-23T21:54:15.653Z,22.83
2018-11-23T21:56:44.924Z,22.43
2018-11-23T21:59:13.557Z,21.43
2018-11-23T22:01:41.824Z,21.93
2018-11-23T22:04:10.344Z,22.33
2018-11-23T22:06:43.466Z,21.97
2018-11-23T22:09:12.158Z,22.57
2018-11-23T22:11:40.884Z,22.03
2018-11-23T22:14:09.169Z,21.47
2018-11-23T22:16:45.060Z,22.60
2018-11-23T22:22:10.932Z,21.50
2018-11-23T22:24:41.385Z,20.87
2018-11-23T22:27:13.828Z,21.47
2018-11-23T22:30:26.934Z,20.27
2018-11-23T22:36:10.492Z,20.80
2018-11-23T22:38:45.738Z,19.63
2018-11-23T22:41:28.089Z,19.43
2018-11-23T22:43:58.404Z,20.57
2018-11-23T22:46:37.662Z,19.17
2018-11-23T22:49:06.790Z,18.47
2018-11-23T22:51:45.658Z,19.20
2018-11-23T22:54:18.320Z,16.70
2018-11-23T22:56:46.642Z,15.80
2018-11-23T22:59:14.986Z,14.87
2018-11-23T23:01:43.175Z,15.40
2018-11-23T23:04:11.387Z,16.43
2018-11-23T23:06:42.566Z,17.27
2018-11-23T23:09:10.868Z,18.33
2018-11-23T23:11:39.064Z,16.37
2018-11-23T23:14:07.234Z,17.30
2018-11-23T23:16:35.552Z,17.60
2018-11-23T23:19:03.743Z,16.43
2018-11-23T23:21:31.931Z,16.40
2018-11-23T23:24:00.123Z,15.77
2018-11-23T23:26:28.402Z,17.27
2018-11-23T23:28:56.572Z,17.30
2018-11-23T23:31:24.901Z,18.23
2018-11-23T23:33:53.074Z,20.20
2018-11-23T23:36:21.285Z,21.33
2018-11-23T23:38:49.475Z,19.33
2018-11-23T23:41:17.716Z,19.73
2018-11-23T23:43:45.953Z,18.97
2018-11-23T23:46:14.209Z,19.10
2018-11-23T23:48:42.430Z,18.13
2018-11-23T23:51:10.728Z,18.03
2018-11-23T23:53:39.066Z,17.73
2018-11-23T23:56:07.248Z,17.03
2018-11-23T23:58:51.873Z,17.27
